x

New Dungeness - 17 Nm Ne Of Port Angeles, Wa (46088) Wave Buoy

9:20 - Sun 28th Dec 2014 All times are PST. -8 hours from GMT.

  • Sig Wave height 1.0ft
  • Swell Direction
  • Peak Period 8s
  • Average Period 4s
  • Wind
    16mph, 20mph gusts
  • Sea Temp 48°f
  • Luft Temp 42°f
  • Sea Pressure 1021.9mb
  • New Dungeness - 17 Nm Ne Of Port Angeles, Wa
  • New Dungeness - 17 Nm Ne Of Port Angeles, Wa

More Historic Weather Station data

Upgrade to MSW Pro to gain access to the past 30 days of data for over 8000 Wavebouys and Weather Stations around the globe.

Join Pro

Comparision Forecast

View Surf forecast
   
So 12/28 9:20 1ft 8s 4s 16 20 mph 1021.9mb 48f 42f
8:50 1ft 7s 4s 13 18 mph 1021.8mb 48f 42f
8:20 1ft 7s 4s 13 16 mph 1021.8mb 48f 42f
7:50 1ft 7s 3s 13 16 mph 1021.6mb 48f 43f
7:20 1.3ft 8s 3s 13 16 mph 1021.6mb 48f 43f
6:50 1.3ft 9s 3s 16 20 mph 1021.6mb 48f 43f
6:20 1.3ft 10s 5s 16 18 mph 1021.6mb 48f 43f
5:50 1.3ft 10s 6s 13 18 mph 1021.5mb 48f 43f
5:20 1ft 11s 6s 11 16 mph 1021.8mb 48f 43f
4:50 1ft 11s 6s 11 16 mph 1022mb 48f 43f
4:20 1ft 9s 6s 11 13 mph 1022.2mb 48f 44f
3:20 0.7ft  -  5s 9 13 mph 1022.2mb 48f 44f
2:50 0.3ft  -  5s 9 11 mph 1022.3mb 48f 44f
2:20 0.3ft  -  4s 9 13 mph 1022.1mb 48f 44f
1:50 0.3ft  -  4s 11 13 mph 1022.2mb 48f 44f
1:20 0.3ft  -  4s 9 13 mph 1022.4mb 48f 44f
12:50 0.7ft  -  3s 9 11 mph 1022.8mb 48f 44f
12:20 0.7ft  -  3s 11 13 mph 1022.9mb 48f 44f
11:50 1ft 3s 3s 13 16 mph 1023mb 48f 44f
11:20 1.3ft 3s 3s 13 18 mph 1023mb 48f 44f
10:50 1.3ft 3s 3s 16 20 mph 1023.1mb 48f 44f
10:20 1.3ft 4s 3s 16 20 mph 1023.1mb 48f 44f
9:50 1.3ft 4s 3s 13 16 mph 1022.8mb 48f 44f
9:20 1.3ft 4s 3s 13 18 mph 1022.6mb 48f 44f
8:50 1.3ft 3s 3s 16 20 mph 1022.3mb 48f 44f
8:20 1.3ft 3s 3s 18 22 mph 1021.9mb 48f 44f
7:50 1.3ft 6s 4s 16 18 mph 1021.8mb 48f 44f
7:20 1.3ft 6s 4s 16 25 mph 1021.7mb 48f 44f
6:50 1.6ft 6s 4s 16 18 mph 1021.7mb 48f 44f
6:20 2ft 7s 4s 16 20 mph 1021.5mb 48f 44f
5:50 2ft 9s 4s 16 20 mph 1021.3mb 48f 44f
5:20 2ft 9s 4s 13 16 mph 1021mb 48f 45f
4:50 2ft 9s 4s 13 18 mph 1020.6mb 48f 45f
4:20 2ft 9s 5s 11 13 mph 1020.7mb 48f 45f
3:50 1.6ft 9s 4s 11 13 mph 1020.5mb 48f 45f
3:20 1.6ft 9s 5s 13 18 mph 1020.2mb 48f 45f
2:50 1.6ft 10s 5s 9 11 mph 1020mb 48f 45f
2:20 1.6ft 5s 5s 7 9 mph 1019.6mb 48f 45f
1:50 1.6ft 5s 5s 7 9 mph 1019.3mb 48f 45f
1:20 1.6ft 5s 5s 7 9 mph 1018.9mb 48f 46f
12:50 1.6ft 4s 4s 4 7 mph 1018.6mb 48f 45f
12:20 1.6ft 4s 4s 9 11 mph 1018.5mb 48f 46f
Sa 12/27 11:50 1.6ft 5s 4s 7 11 mph 1018.3mb 48f 46f
11:20 2ft 4s 4s 7 11 mph 1018.2mb 48f 46f
10:50 2ft 4s 4s 7 9 mph 1018.1mb 48f 46f
10:20 2.5ft 5s 4s 7
mph
1018mb 48f 46f
9:50 3ft 4s 4s 9 13 mph 1017.8mb 48f 46f
9:20 4ft 5s 4s 18 22 mph 1017.4mb 48f 47f
8:50 4.5ft 5s 4s 22 29 mph 1016.8mb 48f 48f
8:20 5ft 5s 4s 25 29 mph 1016.2mb 48f 48f
7:50 5ft 5s 5s 22 27 mph 1016.3mb 48f 48f
7:20 4.5ft 5s 4s 20 29 mph 1016.4mb 48f 48f
6:50 5.5ft 5s 5s 25 29 mph 1016.3mb 48f 47f
6:20 5ft 5s 4s 25 31 mph 1016.3mb 48f 47f
5:50 5ft 6s 4s 29 36 mph 1015.9mb 48f 48f
5:20 5ft 6s 4s 27 36 mph 1015.9mb 48f 48f
4:50 4.5ft 6s 5s 29 38 mph 1015.7mb 48f 47f
4:20 4.5ft 6s 5s 25 29 mph 1016.2mb 48f 47f
3:50 4.5ft 5s 5s 22 27 mph 1016.6mb 48f 46f
3:20 4.5ft 6s 5s 25 29 mph 1016.4mb 48f 47f
2:50 4.5ft 5s 5s 25 31 mph 1016.9mb 48f 47f
2:20 3.5ft 5s 5s 25 29 mph 1016.8mb 48f 48f
1:50 3ft 5s 5s 22 27 mph 1016.8mb 48f 48f
1:20 3.5ft 5s 5s 18 22 mph 1017mb 48f 47f
12:50 4.5ft 6s 5s 22 29 mph 1016.8mb 48f 46f
12:20 4.5ft 5s 4s 29 40 mph 1016.8mb 48f 47f
11:50 2ft 4s 3s 29 36 mph 1015.7mb 48f 49f
11:20 2ft 3s 3s 13 18 mph 1017.4mb 48f 49f
10:50 1.3ft 4s 3s 18 22 mph 1017.8mb 48f 47f
10:20 1.3ft 4s 3s 18 25 mph 1018.1mb 48f 46f
9:50 1.3ft 4s 4s 11 16 mph 1018.5mb 48f 45f
9:20 1.3ft 4s 4s 7 9 mph 1019mb 48f 45f
8:50 1.6ft 4s 4s 7 9 mph 1019mb 48f 44f
8:20 1.3ft 4s 3s 13 18 mph 1018.7mb 48f 44f
7:50 1.3ft 4s 3s 16 18 mph 1018.7mb 48f 44f
7:20 1.3ft 4s 4s 16 18 mph 1019.3mb 48f 44f
6:50 1ft 4s 4s 16 18 mph 1019.9mb 48f 44f
6:20 1ft 3s 3s 16 18 mph 1020.4mb 48f 44f
5:50 1ft 4s 4s 13 16 mph 1020.8mb 48f 44f
5:20 1.3ft 4s 4s 9 11 mph 1021.5mb 48f 44f
4:50 2ft 4s 4s 11 13 mph 1022mb 48f 43f
4:20 2.5ft 4s 4s 16 18 mph 1022.2mb 48f 44f
3:50 2.5ft 4s 3s 18 20 mph 1022.9mb 48f 43f
3:20 2.5ft 4s 3s 20 22 mph 1023.4mb 48f 43f
2:50 2.5ft 4s 3s 20 22 mph 1024mb 48f 43f
2:20 2ft 3s 3s 16 20 mph 1024.4mb 48f 43f
1:50 1.6ft 3s 3s 18 20 mph 1024.3mb 48f 43f
1:20 1.6ft 3s 3s 18 20 mph 1024.4mb 48f 43f
12:50 1.3ft 3s 3s 20 22 mph 1024.6mb 48f 43f
12:20 1ft 3s 3s 16 18 mph 1025.6mb 48f 43f
Fr 12/26 11:50 1ft 3s 3s 16 18 mph 1026.2mb 48f 43f
11:20 1ft 2s 3s 13 18 mph 1026.4mb 48f 43f
10:50 1ft 3s 3s 11 13 mph 1027mb 48f 43f
10:20 1ft 3s 3s 9
mph
1027.1mb 48f 43f
9:50 1ft 3s 3s 9 11 mph 1026.9mb 48f 43f
9:20 1ft 3s 3s 9 11 mph 1027.3mb 48f 43f
8:50 1ft 3s 3s 11 13 mph 1027.3mb 48f 43f
8:20 1ft 3s 3s 13 16 mph 1027.2mb 48f 43f
7:50 1ft 3s 3s 11 13 mph 1027.5mb 48f 44f
7:20 1ft 3s 3s 13
mph
1027.1mb 48f 44f
6:50 0.7ft  -  3s 11 13 mph 1027.2mb 48f 44f
6:20 0.7ft  -  3s 11 13 mph 1027.4mb 48f 44f
5:50 1ft 9s 4s 11 13 mph 1027.4mb 48f 44f
5:20 1ft 9s 3s 9 11 mph 1027.6mb 48f 43f
4:50 1ft 3s 3s 9
mph
1027.8mb 48f 43f
4:20 1ft 3s 3s 9 11 mph 1027.6mb 48f 43f
3:50 1ft 3s 3s 9 11 mph 1027.6mb 48f 43f
2:50 1ft 2s 3s 11 13 mph 1027.4mb 48f 43f
2:20 1ft 2s 3s 13 16 mph 1027.4mb 48f 43f
1:50 1ft 3s 3s 13 16 mph 1027.4mb 48f 43f
1:20 1.3ft 3s 3s 13
mph
1027.6mb 48f 43f
12:50 1.3ft 3s 3s 11 13 mph 1027.8mb 48f 43f
12:20 1ft 3s 3s 13 16 mph 1027.9mb 48f 42f
11:50 1.3ft 3s 3s 13 18 mph 1028.1mb 48f 42f
11:20 1.3ft 3s 3s 11 13 mph 1028.5mb 48f 43f
10:50 1.3ft 3s 3s 13 16 mph 1028.4mb 48f 43f
10:20 1.3ft 3s 3s 13 16 mph 1028.5mb 48f 42f
9:50 1.3ft 3s 3s 13 16 mph 1028.3mb 48f 42f
9:20 1ft 3s 3s 13 16 mph 1027.9mb 48f 42f
8:50 1ft 3s 3s 11 13 mph 1027.6mb 48f 43f
8:20 1ft 3s 3s 11 13 mph 1027.5mb 48f 43f
7:50 1ft 4s 3s 11 13 mph 1027.5mb 48f 43f
7:20 0.7ft  -  3s 11 13 mph 1027.3mb 48f 43f
6:50 0.7ft  -  4s 11 16 mph 1027.3mb 48f 43f
6:20 0.7ft  -  4s 9 11 mph 1027.3mb 48f 43f
5:50 0.7ft  -  4s 9 11 mph 1027.1mb 48f 43f
5:20 0.7ft  -  4s 9
mph
1027mb 48f 43f
4:50 1ft 3s 4s 9 11 mph 1026.9mb 48f 43f
4:20 1ft 8s 4s 11 13 mph 1027mb 48f 42f
3:50 1ft 9s 4s 13 16 mph 1026.9mb 48f 43f
3:20 1ft 9s 4s 13 16 mph 1026.9mb 48f 43f
2:50 1ft 9s 5s 11 13 mph 1026.9mb 48f 44f
2:20 1ft 9s 6s 11 13 mph 1026.4mb 48f 45f
1:50 1ft 10s 6s 9 11 mph 1026.1mb 48f 45f
1:20 0.7ft  -  6s 2
mph
1025.8mb 48f 45f
12:50 0.7ft  -  5s  -  2 mph 1025.5mb 48f 45f
12:20 0.3ft  -  5s  -  2 mph 1025.4mb 48f 45f
Do 12/25 11:50 0.3ft  -  4s  -  2 mph 1025.4mb 48f 45f
11:20 0.3ft  -  5s  -  mph 1025.5mb 48f 45f
10:50 0.3ft  -  5s 2 4 mph 1025.8mb 48f 45f
10:20 0.3ft  -  5s 4 7 mph 1025.8mb 48f 44f
9:50 0.3ft  -  4s 4 7 mph 1025.6mb 48f 45f
9:20 0.3ft  -  4s 4 7 mph 1025.6mb 48f 45f
8:50 0.3ft  -  5s 7
mph
1025.6mb 48f 45f
8:20 0.7ft  -  5s 4 7 mph 1025.2mb 48f 46f
7:50 0.7ft  -  5s 2
mph
1024.7mb 48f 46f
7:20 0.7ft  -  5s 2 4 mph 1024.4mb 48f 46f
6:50 0.7ft  -  4s  -  2 mph 1024.3mb 48f 46f
6:20 1ft 6s 5s 2
mph
1024.1mb 48f 46f
5:50 1ft 7s 5s 2 4 mph 1023.8mb 48f 46f
5:20 1.3ft 7s 5s 2 4 mph 1023.7mb 48f 46f
4:50 1.3ft 7s 5s 2 4 mph 1023.7mb 48f 46f
4:20 1ft 8s 5s 2 4 mph 1023.7mb 48f 46f
3:20 1.3ft 10s 6s  -  2 mph 1023.7mb 49f 46f
2:50 1ft 11s 5s  -  2 mph 1023.2mb 49f 49f
2:20 1ft 9s 5s 2
mph
1022.8mb 49f 47f
1:50 1ft 11s 5s 2
mph
1022.8mb 48f 48f
1:20 1ft 10s 4s  -  2 mph 1022.7mb 48f 48f
12:50 0.7ft  -  4s  -  2 mph 1022.6mb 48f 48f
12:20 0.7ft  -  4s 2 4 mph 1022.5mb 48f 47f
11:50 0.7ft  -  5s 2 4 mph 1022.4mb 48f 46f
11:20 0.7ft  -  5s 2 4 mph 1022.6mb 48f 46f
10:50 0.7ft  -  4s 2
mph
1022.8mb 48f 47f
10:20 1ft 8s 5s  -  2 mph 1022.6mb 48f 47f
9:50 1ft 10s 4s 2 4 mph 1022.1mb 48f 45f
9:20 1ft 11s 5s 4
mph
1021.8mb 48f 44f
8:50 1ft 12s 5s 7
mph
1021.3mb 48f 45f
8:20 0.7ft  -  4s 7 9 mph 1020.8mb 48f 45f
7:50 0.7ft  -  4s 9 11 mph 1020.6mb 48f 45f
7:20 0.7ft  -  4s 9 11 mph 1020.4mb 48f 45f
6:50 0.7ft  -  4s 7 9 mph 1020.4mb 48f 45f